• Join FlightAware (Why Join?)
  • Login
  • US Flag 
10:38PM EDT


 

Airport Tracker/Info


-or-


 

Live Flight TrackerFlight Track Log ✈ RPA3383 ✈ 09-May-2013 ✈ KPVD - KDCA

Flight Track Log - Related Links

Times and Time Zones

All times are in EDT time to prevent confusion due to time zone crossing. See the RPA3383 flight status page for this flight to view local times or setup timezone preferences in your user account.

Time Position Orientation Groundspeed Altitude Reporting Facility
EDT Latitude Longitude Course Direction KTS MPH feet Rate Location/Type
06:21AM 41.7350 -71.4192 166° South 149 171 800  Level Boston Center
06:22AM 41.7617 -71.3464 64° Northeast 212 244 2,600 1,800 Climbing Boston Center
06:23AM 41.7897 -71.2539 68° East 267 307 4,700 2,160 Climbing Boston Center
06:24AM 41.5294 -71.8421 162° South  Level Estimated
06:24AM 41.7581 -71.2100 134° Southeast 284 327 6,200  Level Boston Center
06:25AM 41.4805 -71.9452 159° South  Level Estimated
06:25AM 41.6956 -71.2139 183° South 279 321 8,500  Level Boston Center
06:26AM 41.4316 -72.0481 166° South  Level Estimated
06:26AM 41.6122 -71.2183 182° South 271 312 11,100  Level Boston Center
06:27AM 41.5372 -71.2225 182° South 290 334 13,600 2,640 Climbing Boston Center
06:28AM 41.4456 -71.2328 185° South 301 346 16,400 2,280 Climbing Boston Center
06:29AM 41.3644 -71.2369 182° South 318 366 18,200 1,920 Climbing Boston Center
06:30AM 41.2769 -71.2497 186° South 318 366 20,300 1,980 Climbing Boston Center
06:31AM 41.1900 -71.2844 197° South 324 373 22,200 1,740 Climbing Boston Center
06:32AM 41.1283 -71.3847 231° Southwest 324 373 23,800 1,620 Climbing Boston Center
06:33AM 41.0731 -71.4986 237° Southwest 341 392 25,500 1,680 Climbing Boston Center
06:34AM 41.0053 -71.6067 230° Southwest 354 407 27,200 1,200 Climbing Boston Center
06:35AM 40.9539 -71.7172 238° Southwest 374 430 28,000 360 Climbing Boston Center
06:36AM 40.8775 -71.8500 233° Southwest 379 436 28,000 360 Level Boston Center
06:37AM 40.7989 -71.9575 226° Southwest 379 436 28,900 1,140 Climbing Boston Center
06:38AM 40.7428 -72.0400 228° Southwest 379 436 30,300 1,500 Climbing Boston Center
06:39AM 40.6642 -72.1447 225° Southwest 379 436 31,900 840 Climbing Boston Center
06:40AM 40.5997 -72.2406 228° Southwest 369 425 32,000  Climbing Boston Center
06:41AM 40.5289 -72.3364 226° Southwest 369 425 32,000  Level Boston Center
06:42AM 40.4644 -72.4319 228° Southwest 369 425 32,000  Level Boston Center
06:43AM 40.3978 -72.5244 227° Southwest 364 419 32,000 600 Level Boston Center
06:44AM 40.3289 -72.6197 227° Southwest 364 419 33,200 900 Climbing Boston Center
06:45AM 40.2642 -72.7147 228° Southwest 364 419 33,800 360 Climbing Boston Center
06:46AM 40.1972 -72.8094 227° Southwest 364 419 34,000 60 Climbing Boston Center
06:47AM 40.1281 -72.9094 228° Southwest 364 419 34,000  Level Boston Center
06:48AM 40.0589 -73.0067 227° Southwest 369 425 34,000  Level Boston Center
06:49AM 39.9936 -73.1008 228° Southwest 369 425 34,000  Level Boston Center
06:49AM 39.9594 -73.1472 226° Southwest 368 423 34,000  Level Washington Center
06:50AM 39.8967 -73.2358 227° Southwest 363 418 34,000  Level Washington Center
06:51AM 39.8275 -73.3300 226° Southwest 363 418 34,000  Level Washington Center
06:52AM 39.7564 -73.4214 225° Southwest 363 418 34,000  Level Washington Center
06:53AM 39.6894 -73.5258 230° Southwest 363 418 34,000  Level Washington Center
06:54AM 39.6331 -73.6381 237° Southwest 368 423 34,000 -720 Level Washington Center
06:55AM 39.5783 -73.7500 238° Southwest 374 430 32,600 -1,620 Descending Washington Center
06:56AM 39.5217 -73.8617 237° Southwest 380 437 30,900 -1,740 Descending Washington Center
06:57AM 39.4650 -73.9706 236° Southwest 380 437 29,200 -1,740 Descending Washington Center
06:58AM 39.4039 -74.0822 235° Southwest 380 437 27,400 -1,800 Descending Washington Center
06:59AM 39.3511 -74.1906 238° Southwest 380 437 25,700 -1,740 Descending Washington Center
07:00AM 39.2961 -74.2989 237° Southwest 380 437 24,000 -1,680 Descending Washington Center
07:01AM 39.2428 -74.3989 235° Southwest 369 425 22,400 -1,620 Descending Washington Center
07:02AM 39.1894 -74.4964 235° Southwest 352 405 20,800 -1,680 Descending Washington Center
07:03AM 39.1383 -74.5933 236° Southwest 341 392 19,200 -1,440 Descending Washington Center
07:04AM 39.0892 -74.6931 238° Southwest 341 392 18,000 -600 Descending Washington Center
07:05AM 39.0378 -74.7900 236° Southwest 336 387 18,000 -180 Level Washington Center
07:06AM 38.9861 -74.8839 235° Southwest 336 387 17,700 -1,020 Descending Washington Center
07:07AM 38.9367 -74.9753 235° Southwest 330 380 16,000 -1,740 Descending Washington Center
07:08AM 38.8892 -75.0636 235° Southwest 330 380 14,300 -1,020 Descending Washington Center
07:09AM 38.8417 -75.1572 237° Southwest 324 373 14,000 -240 Descending Washington Center
07:10AM 38.8064 -75.2533 245° Southwest 313 360 13,900  Descending Washington Center
07:11AM 38.8006 -75.3653 266° West 300 345 14,000  Climbing Washington Center
07:12AM 38.7944 -75.4744 266° West 305 351 14,000  Level Washington Center
07:13AM 38.7883 -75.5811 266° West 305 351 14,000 -60 Level Washington Center
07:14AM 38.7797 -75.6928 264° West 315 362 13,900 -60 Descending Washington Center
07:15AM 38.7714 -75.8019 264° West 315 362 13,900 -420 Level Washington Center
07:16AM 38.7669 -75.9111 267° West 315 362 13,100 -1,260 Descending Washington Center
07:17AM 38.7583 -76.0203 264° West 310 357 11,500 -1,140 Descending Washington Center
07:18AM 38.7600 -76.1242 271° West 310 357 10,900 -660 Descending Washington Center
07:19AM 38.7678 -76.2306 275° West 310 357 10,200 -480 Descending Washington Center
07:20AM 38.7775 -76.3319 277° West 305 351 10,000 -180 Descending Washington Center
07:21AM 38.7833 -76.4000 276° West 269 310 10,000  Level Potomac TRACON
07:22AM 38.7500 -76.4833 243° Southwest 278 320 10,000 -420 Level Potomac TRACON
07:23AM 38.7333 -76.5667 256° West 279 321 9,300 -960 Descending Potomac TRACON
07:24AM 38.7000 -76.6667 247° West 272 313 8,200 -1,500 Descending Potomac TRACON
07:25AM 38.6667 -76.7500 243° Southwest 267 307 6,400 -1,680 Descending Potomac TRACON
07:26AM 38.6333 -76.8167 237° Southwest 263 303 4,900 -1,320 Descending Potomac TRACON
07:27AM 38.5833 -76.8667 218° Southwest 248 285 4,000 -480 Descending Potomac TRACON
07:28AM 38.5333 -76.9167 218° Southwest 215 247 4,000 -360 Level Potomac TRACON
07:29AM 38.5167 -76.9833 252° West 168 193 3,300 -780 Descending Potomac TRACON
07:30AM 38.5500 -77.0000 339° North 179 206 2,500 -420 Descending Potomac TRACON
07:31AM 38.6000 -77.0167 345° North 172 198 2,500  Level Potomac TRACON
07:32AM 38.6500 -77.0167 360° North 173 199 2,500  Level Potomac TRACON
07:33AM 38.7000 -77.0167 360° North 172 198 2,500 -300 Level Potomac TRACON
07:34AM 38.7500 -77.0333 345° North 175 201 1,900 -600 Descending Potomac TRACON